createdAt,value
2022-10-23T00:01:26.465Z,13.18
2022-10-23T00:04:03.126Z,13.21
2022-10-23T00:06:30.113Z,13.26
2022-10-23T00:08:56.682Z,13.20
2022-10-23T00:11:26.006Z,13.14
2022-10-23T00:13:54.765Z,13.06
2022-10-23T00:16:21.359Z,13.06
2022-10-23T00:18:47.892Z,13.04
2022-10-23T00:21:15.279Z,13.03
2022-10-23T00:23:41.819Z,13.03
2022-10-23T00:26:08.532Z,13.04
2022-10-23T00:28:35.114Z,13.06
2022-10-23T00:31:02.408Z,13.12
2022-10-23T00:33:28.991Z,13.07
2022-10-23T00:35:55.488Z,13.00
2022-10-23T00:38:22.005Z,12.95
2022-10-23T00:43:35.637Z,12.85
2022-10-23T00:46:02.132Z,12.86
2022-10-23T00:48:28.703Z,12.84
2022-10-23T00:50:55.303Z,12.91
2022-10-23T00:53:21.985Z,12.92
2022-10-23T00:55:49.370Z,12.95
2022-10-23T00:58:19.051Z,12.91
2022-10-23T01:00:47.333Z,12.84
2022-10-23T01:03:14.460Z,12.73
2022-10-23T01:05:52.767Z,12.72
2022-10-23T01:08:24.593Z,12.72
2022-10-23T01:10:56.247Z,12.65
2022-10-23T01:13:35.816Z,12.46
2022-10-23T01:16:07.309Z,12.28
2022-10-23T01:18:43.149Z,12.16
2022-10-23T01:21:10.735Z,12.17
2022-10-23T01:23:46.362Z,12.16
2022-10-23T01:26:15.958Z,12.22
2022-10-23T01:28:50.730Z,12.31
2022-10-23T01:31:21.363Z,12.37
2022-10-23T01:33:49.169Z,12.36
2022-10-23T01:36:23.440Z,12.42
2022-10-23T01:38:56.338Z,12.47
2022-10-23T01:41:35.073Z,12.43
2022-10-23T01:44:03.486Z,12.39
2022-10-23T01:46:35.486Z,12.47
2022-10-23T01:49:02.627Z,12.44
2022-10-23T01:51:29.392Z,12.43
2022-10-23T01:54:01.606Z,12.36
2022-10-23T01:56:32.490Z,12.27
2022-10-23T01:59:00.184Z,12.17
2022-10-23T02:01:31.099Z,12.18
2022-10-23T02:06:25.789Z,12.05
2022-10-23T02:08:52.394Z,12.04
2022-10-23T02:11:20.977Z,11.99
2022-10-23T02:14:02.138Z,12.02
2022-10-23T02:16:31.785Z,12.04
2022-10-23T02:19:04.349Z,12.06
2022-10-23T02:21:51.151Z,12.03
2022-10-23T02:24:20.269Z,12.00
2022-10-23T02:26:50.760Z,12.03
2022-10-23T02:29:18.760Z,12.12
2022-10-23T02:31:46.727Z,12.21
2022-10-23T02:34:13.614Z,12.21
2022-10-23T02:36:40.304Z,12.28
2022-10-23T02:39:07.694Z,12.38
2022-10-23T02:41:55.817Z,12.43
2022-10-23T02:44:28.226Z,12.43
2022-10-23T02:47:07.477Z,12.42
2022-10-23T02:49:37.017Z,12.44
2022-10-23T02:52:29.600Z,12.47
2022-10-23T02:55:15.281Z,12.47
2022-10-23T02:57:57.359Z,12.56
2022-10-23T03:00:24.229Z,12.56
2022-10-23T03:02:50.735Z,12.54
2022-10-23T03:05:21.063Z,12.54
2022-10-23T03:07:48.464Z,12.60
2022-10-23T03:10:16.785Z,12.56
2022-10-23T03:12:43.673Z,12.53
2022-10-23T03:15:11.425Z,12.49
2022-10-23T03:17:38.020Z,12.49
2022-10-23T03:20:05.951Z,12.47
2022-10-23T03:22:32.472Z,12.42
2022-10-23T03:25:00.155Z,12.42
2022-10-23T03:30:16.377Z,12.33
2022-10-23T03:32:43.529Z,12.30
2022-10-23T03:35:10.416Z,12.25
2022-10-23T03:37:37.988Z,12.25
2022-10-23T03:40:04.870Z,12.19
2022-10-23T03:42:34.458Z,12.21
2022-10-23T03:45:01.173Z,12.22
2022-10-23T03:47:27.849Z,12.22
2022-10-23T03:49:54.400Z,12.25
2022-10-23T03:55:11.778Z,12.19
2022-10-23T03:57:38.478Z,12.24
2022-10-23T04:00:06.367Z,12.22
2022-10-23T04:02:43.240Z,12.23
2022-10-23T04:05:10.395Z,12.19
2022-10-23T04:07:39.085Z,12.15
2022-10-23T04:10:06.178Z,12.10
2022-10-23T04:12:32.748Z,12.10
2022-10-23T04:14:59.318Z,12.16
2022-10-23T04:17:25.933Z,12.23
2022-10-23T04:19:52.455Z,12.24
2022-10-23T04:22:19.218Z,12.31
2022-10-23T04:24:46.844Z,12.39
2022-10-23T04:27:18.209Z,12.44
2022-10-23T04:29:44.734Z,12.45
2022-10-23T04:32:11.291Z,12.36
2022-10-23T04:34:37.859Z,12.19
2022-10-23T04:37:04.355Z,12.06
2022-10-23T04:39:30.870Z,12.02
2022-10-23T04:41:57.472Z,11.97
2022-10-23T04:44:25.168Z,11.93
2022-10-23T04:46:51.728Z,11.93
2022-10-23T04:49:18.253Z,11.98
2022-10-23T04:52:19.848Z,12.04
2022-10-23T04:55:12.717Z,12.10
2022-10-23T04:57:44.119Z,12.03
2022-10-23T05:00:12.605Z,12.05
2022-10-23T05:02:44.163Z,12.12
2022-10-23T05:05:13.680Z,12.22
2022-10-23T05:08:00.881Z,12.20
2022-10-23T05:10:59.597Z,12.13
2022-10-23T05:13:26.325Z,12.15
2022-10-23T05:15:53.131Z,12.18
2022-10-23T05:18:36.272Z,12.15
2022-10-23T05:21:07.943Z,12.20
2022-10-23T05:23:34.535Z,12.20
2022-10-23T05:26:03.443Z,12.18
2022-10-23T05:28:31.374Z,12.11
2022-10-23T05:30:59.128Z,12.13
2022-10-23T05:33:27.504Z,12.13
2022-10-23T05:35:54.076Z,12.11
2022-10-23T05:38:22.064Z,12.14
2022-10-23T05:40:50.564Z,12.15
2022-10-23T05:43:19.022Z,12.22
2022-10-23T05:46:08.921Z,12.38
2022-10-23T05:48:49.812Z,12.42
2022-10-23T05:51:38.815Z,12.41
2022-10-23T05:54:27.934Z,12.36
2022-10-23T05:57:14.757Z,12.35
2022-10-23T05:59:44.208Z,12.34
2022-10-23T06:02:31.027Z,12.37
2022-10-23T06:05:06.357Z,12.43
2022-10-23T06:07:59.211Z,12.43
2022-10-23T06:10:26.232Z,12.41
2022-10-23T06:12:55.374Z,12.47
2022-10-23T06:15:22.093Z,12.50
2022-10-23T06:18:11.232Z,12.54
2022-10-23T06:20:48.901Z,12.62
2022-10-23T06:23:23.330Z,12.72
2022-10-23T06:26:09.330Z,12.77
2022-10-23T06:28:47.496Z,12.84
2022-10-23T06:31:15.000Z,12.86
2022-10-23T06:33:41.781Z,12.85
2022-10-23T06:36:10.754Z,12.85
2022-10-23T06:38:40.718Z,12.94
2022-10-23T06:41:11.375Z,12.98
2022-10-23T06:43:38.236Z,13.02
2022-10-23T06:46:23.986Z,13.02
2022-10-23T06:49:16.504Z,13.00
2022-10-23T06:51:48.358Z,12.94
2022-10-23T06:54:16.530Z,12.94
2022-10-23T06:57:03.234Z,13.00
2022-10-23T06:59:38.481Z,13.06
2022-10-23T07:02:06.503Z,13.18
2022-10-23T07:04:33.280Z,13.22
2022-10-23T07:07:02.084Z,13.22
2022-10-23T07:09:37.708Z,13.25
2022-10-23T07:12:25.890Z,13.32
2022-10-23T07:15:12.413Z,13.39
2022-10-23T07:17:39.016Z,13.48
2022-10-23T07:20:06.235Z,13.50
2022-10-23T07:22:33.497Z,13.54
2022-10-23T07:25:10.404Z,13.67
2022-10-23T07:27:38.615Z,13.69
2022-10-23T07:30:07.781Z,13.71
2022-10-23T07:32:42.321Z,13.78
2022-10-23T07:35:27.685Z,13.87
2022-10-23T07:38:04.668Z,13.92
2022-10-23T07:40:34.873Z,13.97
2022-10-23T07:43:02.874Z,13.88
2022-10-23T07:45:30.407Z,13.83
2022-10-23T07:48:04.209Z,13.91
2022-10-23T07:50:46.818Z,13.96
2022-10-23T07:53:24.645Z,13.98
2022-10-23T07:55:57.934Z,14.07
2022-10-23T07:58:26.699Z,14.15
2022-10-23T08:01:06.426Z,14.28
2022-10-23T08:03:38.328Z,14.35
2022-10-23T08:06:06.168Z,14.37
2022-10-23T08:08:33.620Z,14.42
2022-10-23T08:11:07.687Z,14.53
2022-10-23T08:13:47.893Z,14.63
2022-10-23T08:16:19.579Z,14.67
2022-10-23T08:19:06.245Z,14.85
2022-10-23T08:21:34.763Z,14.96
2022-10-23T08:24:02.328Z,15.08
2022-10-23T08:26:30.311Z,15.18
2022-10-23T08:29:01.928Z,15.25
2022-10-23T08:31:30.233Z,15.44
2022-10-23T08:34:24.078Z,15.61
2022-10-23T08:36:52.479Z,15.74
2022-10-23T08:39:19.091Z,15.85
2022-10-23T08:42:02.047Z,15.92
2022-10-23T08:44:31.896Z,16.00
2022-10-23T08:46:59.405Z,16.04
2022-10-23T08:49:46.523Z,16.01
2022-10-23T08:52:30.499Z,16.04
2022-10-23T08:55:05.634Z,16.04
2022-10-23T08:57:38.781Z,16.09
2022-10-23T09:00:08.935Z,16.13
2022-10-23T09:02:41.067Z,16.15
2022-10-23T09:05:15.119Z,16.14
2022-10-23T09:07:51.578Z,16.23
2022-10-23T09:10:34.807Z,16.29
2022-10-23T09:13:04.042Z,16.34
2022-10-23T09:15:31.873Z,16.48
2022-10-23T09:18:04.759Z,16.60
2022-10-23T09:20:35.675Z,16.73
2022-10-23T09:23:04.433Z,16.82
2022-10-23T09:25:34.264Z,16.95
2022-10-23T09:28:05.333Z,17.03
2022-10-23T09:30:34.365Z,17.13
2022-10-23T09:33:01.221Z,17.21
2022-10-23T09:35:28.754Z,17.31
2022-10-23T09:37:55.546Z,17.34
2022-10-23T09:40:27.287Z,17.47
2022-10-23T09:42:58.407Z,17.57
2022-10-23T09:45:27.986Z,17.58
2022-10-23T09:48:24.411Z,17.58
2022-10-23T09:50:52.350Z,17.63
2022-10-23T09:53:22.174Z,17.75
2022-10-23T09:55:52.885Z,17.88
2022-10-23T09:58:39.809Z,17.95
2022-10-23T10:01:10.656Z,18.04
2022-10-23T10:03:51.822Z,18.13
2022-10-23T10:06:23.671Z,18.16
2022-10-23T10:08:53.008Z,18.23
2022-10-23T10:11:22.739Z,18.37
2022-10-23T10:14:07.282Z,18.52
2022-10-23T10:19:09.822Z,18.56
2022-10-23T10:21:54.950Z,18.57
2022-10-23T10:24:23.574Z,18.54
2022-10-23T10:26:59.158Z,18.57
2022-10-23T10:29:31.800Z,18.62
2022-10-23T10:32:04.961Z,18.68
2022-10-23T10:34:37.627Z,18.77
2022-10-23T10:37:24.602Z,18.89
2022-10-23T10:39:57.465Z,18.91
2022-10-23T10:42:27.282Z,19.02
2022-10-23T10:44:57.626Z,19.21
2022-10-23T10:47:51.842Z,19.27
2022-10-23T10:50:37.953Z,19.49
2022-10-23T10:53:19.552Z,19.54
2022-10-23T10:55:47.231Z,19.55
2022-10-23T10:58:16.256Z,19.55
2022-10-23T11:00:42.966Z,19.57
2022-10-23T11:03:22.331Z,19.50
2022-10-23T11:05:50.643Z,19.44
2022-10-23T11:08:22.408Z,19.41
2022-10-23T11:10:50.720Z,19.48
2022-10-23T11:13:28.842Z,19.53
2022-10-23T11:15:56.632Z,19.60
2022-10-23T11:18:24.498Z,19.67
2022-10-23T11:21:00.083Z,19.71
2022-10-23T11:23:32.530Z,19.80
2022-10-23T11:25:59.076Z,19.82
2022-10-23T11:28:34.841Z,19.81
2022-10-23T11:31:11.885Z,19.81
2022-10-23T11:33:57.585Z,19.80
2022-10-23T11:36:39.399Z,19.95
2022-10-23T11:39:07.413Z,19.94
2022-10-23T11:41:34.761Z,20.06
2022-10-23T11:44:03.632Z,20.17
2022-10-23T11:46:37.058Z,20.25
2022-10-23T11:49:06.134Z,20.32
2022-10-23T11:51:34.359Z,20.35
2022-10-23T11:54:07.923Z,20.39
2022-10-23T11:56:34.538Z,20.28
2022-10-23T11:59:17.248Z,20.17
2022-10-23T12:01:45.581Z,20.05
2022-10-23T12:04:12.375Z,20.06
2022-10-23T12:06:43.049Z,20.07
2022-10-23T12:09:22.322Z,20.07
2022-10-23T12:11:49.411Z,20.11
2022-10-23T12:14:29.907Z,20.16
2022-10-23T12:16:56.597Z,20.23
2022-10-23T12:19:24.190Z,20.30
2022-10-23T12:21:51.421Z,20.34
2022-10-23T12:24:22.488Z,20.39
2022-10-23T12:26:56.781Z,20.46
2022-10-23T12:29:32.961Z,20.50
2022-10-23T12:32:03.807Z,20.50
2022-10-23T12:34:36.478Z,20.57
2022-10-23T12:37:16.479Z,20.58
2022-10-23T12:39:43.205Z,20.58
2022-10-23T12:42:16.055Z,20.58
2022-10-23T12:44:42.811Z,20.64
2022-10-23T12:47:11.757Z,20.68
2022-10-23T12:49:38.266Z,20.71
2022-10-23T12:52:06.050Z,20.76
2022-10-23T12:54:33.909Z,20.79
2022-10-23T12:57:00.382Z,20.81
2022-10-23T12:59:37.051Z,20.82
2022-10-23T13:02:13.990Z,20.85
2022-10-23T13:04:40.606Z,21.01
2022-10-23T13:07:07.111Z,21.12
2022-10-23T13:09:34.672Z,21.20
2022-10-23T13:12:24.662Z,21.20
2022-10-23T13:15:17.795Z,21.16
2022-10-23T13:17:45.746Z,21.06
2022-10-23T13:20:18.507Z,20.90
2022-10-23T13:22:46.461Z,20.75
2022-10-23T13:25:23.936Z,20.55
2022-10-23T13:27:50.598Z,20.38
2022-10-23T13:30:33.424Z,20.31
2022-10-23T13:33:00.051Z,20.24
2022-10-23T13:35:26.787Z,20.16
2022-10-23T13:37:54.405Z,20.10
2022-10-23T13:40:25.725Z,20.05
2022-10-23T13:42:55.532Z,19.98
2022-10-23T13:45:23.461Z,19.90
2022-10-23T13:47:50.179Z,19.85
2022-10-23T13:50:17.217Z,19.83
2022-10-23T13:52:43.865Z,19.84
2022-10-23T13:55:17.166Z,19.86
2022-10-23T13:57:43.940Z,19.88
2022-10-23T14:00:11.117Z,19.91
2022-10-23T14:02:38.504Z,19.86
2022-10-23T14:05:05.150Z,19.84
2022-10-23T14:07:31.627Z,19.80
2022-10-23T14:09:58.192Z,19.77
2022-10-23T14:12:24.712Z,19.72
2022-10-23T14:14:51.953Z,19.64
2022-10-23T14:17:19.140Z,19.61
2022-10-23T14:19:45.878Z,19.54
2022-10-23T14:22:12.391Z,19.49
2022-10-23T14:24:39.032Z,19.42
2022-10-23T14:27:05.595Z,19.37
2022-10-23T14:29:32.188Z,19.32
2022-10-23T14:31:58.755Z,19.27
2022-10-23T14:34:25.402Z,19.23
2022-10-23T14:37:07.352Z,19.23
2022-10-23T14:39:34.453Z,19.24
2022-10-23T14:42:00.983Z,19.26
2022-10-23T14:44:27.719Z,19.25
2022-10-23T14:46:54.242Z,19.17
2022-10-23T14:49:20.851Z,19.19
2022-10-23T14:51:47.385Z,19.26
2022-10-23T14:54:15.778Z,19.18
2022-10-23T14:56:42.337Z,19.19
2022-10-23T14:59:10.814Z,19.21
2022-10-23T15:01:43.806Z,19.14
2022-10-23T15:04:14.452Z,19.18
2022-10-23T15:06:41.988Z,19.29
2022-10-23T15:09:08.925Z,19.26
2022-10-23T15:11:35.521Z,19.26
2022-10-23T15:14:02.019Z,19.26
2022-10-23T15:16:28.629Z,19.22
2022-10-23T15:18:55.151Z,19.28
2022-10-23T15:21:21.721Z,19.25
2022-10-23T15:23:48.382Z,19.28
2022-10-23T15:26:20.133Z,19.28
2022-10-23T15:28:47.409Z,19.23
2022-10-23T15:31:24.059Z,19.18
2022-10-23T15:33:50.587Z,19.10
2022-10-23T15:36:17.105Z,19.00
2022-10-23T15:38:43.585Z,18.94
2022-10-23T15:41:14.385Z,18.93
2022-10-23T15:43:40.957Z,18.90
2022-10-23T15:46:07.496Z,18.91
2022-10-23T15:48:34.139Z,18.90
2022-10-23T15:51:00.718Z,18.90
2022-10-23T15:53:27.214Z,18.90
2022-10-23T15:55:53.847Z,18.86
2022-10-23T15:58:20.621Z,18.80
2022-10-23T16:00:47.180Z,18.79
2022-10-23T16:03:13.703Z,18.76
2022-10-23T16:05:40.208Z,18.72
2022-10-23T16:08:06.745Z,18.69
2022-10-23T16:10:33.430Z,18.63
2022-10-23T16:12:59.932Z,18.59
2022-10-23T16:15:26.733Z,18.60
2022-10-23T16:17:54.264Z,18.64
2022-10-23T16:20:21.344Z,18.60
2022-10-23T16:25:01.730Z,18.76
2022-10-23T16:27:28.335Z,18.69
2022-10-23T16:31:32.499Z,19.99
2022-10-23T16:34:00.480Z,19.91
2022-10-23T16:36:27.488Z,19.65
2022-10-23T16:39:14.048Z,19.42
2022-10-23T16:41:59.220Z,19.24
2022-10-23T16:44:34.965Z,19.06
2022-10-23T16:47:04.288Z,18.92
2022-10-23T16:49:32.247Z,18.73
2022-10-23T16:51:58.970Z,18.68
2022-10-23T16:54:25.614Z,18.55
2022-10-23T16:56:52.284Z,18.51
2022-10-23T16:59:19.271Z,18.59
2022-10-23T17:01:46.070Z,18.52
2022-10-23T17:04:12.803Z,18.44
2022-10-23T17:06:39.546Z,18.50
2022-10-23T17:09:06.873Z,18.52
2022-10-23T17:11:38.472Z,18.59
2022-10-23T17:14:11.372Z,18.68
2022-10-23T17:16:44.612Z,18.76
2022-10-23T17:19:20.858Z,18.72
2022-10-23T17:21:55.338Z,18.81
2022-10-23T17:24:22.920Z,18.84
2022-10-23T17:26:49.645Z,18.77
2022-10-23T17:29:16.521Z,18.73
2022-10-23T17:31:46.008Z,18.72
2022-10-23T17:34:15.627Z,18.63
2022-10-23T17:36:44.974Z,18.60
2022-10-23T17:39:14.150Z,18.66
2022-10-23T17:41:41.591Z,18.69
2022-10-23T17:44:08.477Z,18.64
2022-10-23T17:46:35.204Z,18.47
2022-10-23T17:51:57.182Z,18.14
2022-10-23T17:54:26.072Z,18.06
2022-10-23T17:56:52.817Z,17.90
2022-10-23T17:59:19.817Z,17.94
2022-10-23T18:01:48.389Z,17.97
2022-10-23T18:04:17.227Z,18.05
2022-10-23T18:06:46.390Z,17.95
2022-10-23T18:09:13.676Z,17.94
2022-10-23T18:11:46.908Z,17.90
2022-10-23T18:14:15.120Z,17.81
2022-10-23T18:16:41.956Z,17.72
2022-10-23T18:19:08.878Z,17.83
2022-10-23T18:21:35.992Z,17.76
2022-10-23T18:24:03.498Z,17.75
2022-10-23T18:26:31.453Z,17.69
2022-10-23T18:28:59.171Z,17.70
2022-10-23T18:31:29.667Z,17.69
2022-10-23T18:34:08.188Z,17.76
2022-10-23T18:36:37.353Z,17.68
2022-10-23T18:39:05.469Z,17.75
2022-10-23T18:41:34.216Z,17.81
2022-10-23T18:44:00.997Z,17.74
2022-10-23T18:46:27.904Z,17.89
2022-10-23T18:48:54.596Z,18.18
2022-10-23T18:51:24.148Z,18.29
2022-10-23T18:53:51.733Z,18.32
2022-10-23T18:56:22.889Z,18.47
2022-10-23T18:58:54.928Z,18.69
2022-10-23T19:01:22.508Z,18.69
2022-10-23T19:03:49.470Z,18.49
2022-10-23T19:06:16.604Z,18.39
2022-10-23T19:08:44.217Z,18.31
2022-10-23T19:11:12.339Z,18.14
2022-10-23T19:13:40.798Z,18.04
2022-10-23T19:16:14.031Z,18.15
2022-10-23T19:18:43.018Z,17.92
2022-10-23T19:21:09.795Z,17.81
2022-10-23T19:23:36.800Z,17.77
2022-10-23T19:26:09.046Z,18.01
2022-10-23T19:28:37.836Z,18.07
2022-10-23T19:31:05.581Z,17.83
2022-10-23T19:33:32.680Z,17.95
2022-10-23T19:36:03.668Z,17.86
2022-10-23T19:38:32.965Z,17.75
2022-10-23T19:40:59.701Z,17.66
2022-10-23T19:43:26.406Z,17.60
2022-10-23T19:45:53.043Z,17.57
2022-10-23T19:48:19.895Z,17.47
2022-10-23T19:50:46.588Z,17.59
2022-10-23T19:53:13.807Z,17.49
2022-10-23T19:55:40.434Z,17.47
2022-10-23T19:58:07.257Z,17.45
2022-10-23T20:00:33.895Z,17.75
2022-10-23T20:03:00.529Z,17.84
2022-10-23T20:05:27.303Z,17.95
2022-10-23T20:07:54.032Z,17.92
2022-10-23T20:10:20.664Z,17.97
2022-10-23T20:12:56.451Z,17.99
2022-10-23T20:15:23.731Z,18.03
2022-10-23T20:17:50.444Z,18.01
2022-10-23T20:20:17.328Z,18.06
2022-10-23T20:22:44.277Z,18.08
2022-10-23T20:25:11.537Z,18.02
2022-10-23T20:27:38.271Z,18.06
2022-10-23T20:30:05.477Z,17.95
2022-10-23T20:32:33.865Z,18.04
2022-10-23T20:35:00.786Z,18.05
2022-10-23T20:37:28.133Z,18.12
2022-10-23T20:39:55.485Z,18.16
2022-10-23T20:42:22.120Z,18.31
2022-10-23T20:44:48.998Z,18.39
2022-10-23T20:47:15.660Z,18.54
2022-10-23T20:49:42.292Z,18.57
2022-10-23T20:52:09.080Z,18.68
2022-10-23T20:54:38.223Z,18.71
2022-10-23T20:57:05.176Z,18.72
2022-10-23T20:59:31.914Z,18.73
2022-10-23T21:01:58.641Z,18.72
2022-10-23T21:04:27.617Z,18.70
2022-10-23T21:07:11.662Z,18.71
2022-10-23T21:09:39.483Z,18.78
2022-10-23T21:12:06.857Z,18.83
2022-10-23T21:14:34.391Z,18.81
2022-10-23T21:17:01.302Z,18.81
2022-10-23T21:19:28.001Z,18.75
2022-10-23T21:21:55.198Z,18.72
2022-10-23T21:24:21.837Z,18.75
2022-10-23T21:26:48.467Z,18.81
2022-10-23T21:29:19.758Z,18.76
2022-10-23T21:31:58.361Z,18.82
2022-10-23T21:34:26.173Z,18.78
2022-10-23T21:39:39.872Z,18.88
2022-10-23T21:42:06.607Z,18.89
2022-10-23T21:44:33.285Z,18.88
2022-10-23T21:47:00.001Z,18.88
2022-10-23T21:49:26.667Z,18.94
2022-10-23T21:51:55.067Z,18.90
2022-10-23T21:54:22.134Z,18.92
2022-10-23T21:56:50.862Z,18.82
2022-10-23T21:59:24.285Z,18.94
2022-10-23T22:01:51.863Z,18.89
2022-10-23T22:04:20.420Z,18.92
2022-10-23T22:06:48.198Z,18.88
2022-10-23T22:09:19.570Z,18.94
2022-10-23T22:11:48.195Z,19.01
2022-10-23T22:14:14.853Z,18.99
2022-10-23T22:16:42.259Z,18.97
2022-10-23T22:19:11.573Z,18.95
2022-10-23T22:21:38.261Z,18.95
2022-10-23T22:24:05.307Z,18.88
2022-10-23T22:26:35.629Z,18.88
2022-10-23T22:29:06.161Z,18.84
2022-10-23T22:31:34.606Z,18.73
2022-10-23T22:34:13.180Z,18.69
2022-10-23T22:36:49.635Z,18.65
2022-10-23T22:39:16.505Z,18.66
2022-10-23T22:41:47.538Z,18.61
2022-10-23T22:44:17.299Z,18.68
2022-10-23T22:46:44.718Z,18.66
2022-10-23T22:49:11.398Z,18.66
2022-10-23T22:51:39.707Z,18.72
2022-10-23T22:54:06.390Z,18.71
2022-10-23T22:56:34.016Z,18.66
2022-10-23T22:59:00.635Z,18.62
2022-10-23T23:01:33.619Z,18.63
2022-10-23T23:04:08.817Z,18.64
2022-10-23T23:06:47.302Z,18.68
2022-10-23T23:09:17.923Z,18.63
2022-10-23T23:11:51.524Z,18.64
2022-10-23T23:14:23.195Z,18.60
2022-10-23T23:16:54.564Z,18.62
2022-10-23T23:19:23.029Z,18.57
2022-10-23T23:21:50.318Z,18.57
2022-10-23T23:24:17.311Z,18.54
2022-10-23T23:26:43.923Z,18.52
2022-10-23T23:29:10.796Z,18.49
2022-10-23T23:31:37.443Z,18.49
2022-10-23T23:34:04.068Z,18.50
2022-10-23T23:36:30.720Z,18.50
2022-10-23T23:38:57.952Z,18.49
2022-10-23T23:41:26.170Z,18.55
2022-10-23T23:43:56.959Z,18.52
2022-10-23T23:46:23.879Z,18.56
2022-10-23T23:48:50.631Z,18.62
2022-10-23T23:51:23.045Z,18.57
2022-10-23T23:53:49.993Z,18.56
2022-10-23T23:56:17.011Z,18.47
2022-10-23T23:58:43.722Z,18.57
